Time;durP1;ratioP1;P1;durP2;ratioP2;P2;SDS_P1;SDS_P2;PMS_P1;PMS_P2;Temp;Humidity;BMP_temperature;BMP_pressure;BME280_temperature;BME280_humidity;BME280_pressure;Samples;Min_cycle;Max_cycle;Signal;HPM_P1;HPM_P2
2024/01/12 05:17:09;;;;;;;;;78.67;56.00;;;;;;;;6492912;39;9755;-60
2024/01/12 05:23:12;;;;;;;;;78.33;59.00;;;;;;;;6492635;46;8864;-61
2024/01/12 05:29:15;;;;;;;;;67.00;56.33;;;;;;;;6492858;39;9566;-61
2024/01/12 05:35:17;;;;;;;;;69.33;57.00;;;;;;;;6491428;39;8915;-61
2024/01/12 05:41:20;;;;;;;;;65.33;53.67;;;;;;;;6492585;39;8909;-61
2024/01/12 05:47:23;;;;;;;;;79.00;60.33;;;;;;;;6492821;39;8943;-62
2024/01/12 05:53:26;;;;;;;;;79.67;60.00;;;;;;;;6491409;31;9657;-61
2024/01/12 05:59:29;;;;;;;;;75.33;59.67;;;;;;;;6492019;46;8883;-60
2024/01/12 06:05:35;;;;;;;;;72.67;57.67;;;;;;;;6492626;39;8960;-61
2024/01/12 06:11:42;;;;;;;;;75.33;57.00;;;;;;;;6491773;39;8973;-59
2024/01/12 06:17:46;;;;;;;;;80.67;61.00;;;;;;;;6311611;31;10000579;-61
2024/01/12 06:23:48;;;;;;;;;68.67;52.67;;;;;;;;6490382;46;8893;-59
2024/01/12 06:29:50;;;;;;;;;73.67;56.67;;;;;;;;6492993;39;8923;-60
2024/01/12 06:35:55;;;;;;;;;71.00;58.00;;;;;;;;6491165;46;8889;-60
2024/01/12 06:41:58;;;;;;;;;72.33;58.00;;;;;;;;6491752;39;9116;-60
2024/01/12 06:48:01;;;;;;;;;69.33;57.00;;;;;;;;6493093;39;9609;-61
2024/01/12 06:54:05;;;;;;;;;65.00;54.67;;;;;;;;6490567;39;8925;-62
2024/01/12 07:00:10;;;;;;;;;66.00;50.67;;;;;;;;6492951;31;8830;-61
2024/01/12 07:06:14;;;;;;;;;72.67;58.00;;;;;;;;6490594;46;8941;-61
2024/01/12 07:12:18;;;;;;;;;71.33;56.00;;;;;;;;6488679;39;9074;-60
2024/01/12 07:18:20;;;;;;;;;75.00;57.00;;;;;;;;6489755;39;9023;-61
2024/01/12 07:24:25;;;;;;;;;68.67;54.67;;;;;;;;6489377;39;8941;-62
2024/01/12 07:30:27;;;;;;;;;64.00;52.33;;;;;;;;6488592;46;8932;-61
2024/01/12 07:36:30;;;;;;;;;69.00;55.00;;;;;;;;6488818;39;8936;-61
2024/01/12 07:42:38;;;;;;;;;76.67;59.33;;;;;;;;6490452;31;8964;-61
2024/01/12 07:48:40;;;;;;;;;69.33;55.67;;;;;;;;6485372;39;9650;-62
2024/01/12 07:54:43;;;;;;;;;55.67;40.33;;;;;;;;6485145;47;8919;-60
2024/01/12 08:00:46;;;;;;;;;73.67;57.00;;;;;;;;6489390;46;8894;-62
2024/01/12 08:06:48;;;;;;;;;61.00;50.67;;;;;;;;6488668;39;9002;-62
2024/01/12 08:12:51;;;;;;;;;76.67;58.00;;;;;;;;6489973;39;9024;-61
2024/01/12 08:18:54;;;;;;;;;76.00;59.67;;;;;;;;6540616;36;8914;-61
2024/01/12 08:24:59;;;;;;;;;75.67;57.00;;;;;;;;6486635;46;8993;-63
2024/01/12 08:31:03;;;;;;;;;70.00;57.67;;;;;;;;6491140;39;8967;-61
2024/01/12 08:37:08;;;;;;;;;79.67;65.00;;;;;;;;6488867;39;8959;-62
2024/01/12 08:43:13;;;;;;;;;76.00;60.00;;;;;;;;6485465;39;9066;-61
2024/01/12 08:49:22;;;;;;;;;69.33;56.33;;;;;;;;6485500;39;8952;-63
2024/01/12 08:55:24;;;;;;;;;77.00;62.00;;;;;;;;6488545;39;9053;-62
2024/01/12 09:01:27;;;;;;;;;75.33;60.67;;;;;;;;6489037;39;8937;-62
2024/01/12 09:07:30;;;;;;;;;78.00;61.67;;;;;;;;6487392;31;8942;-62
2024/01/12 09:13:32;;;;;;;;;79.33;62.67;;;;;;;;6489822;39;9011;-60
2024/01/12 09:19:35;;;;;;;;;68.00;56.33;;;;;;;;6491654;46;8937;-61
2024/01/12 09:25:39;;;;;;;;;65.33;57.00;;;;;;;;6325937;31;9999906;-63
2024/01/12 09:31:42;;;;;;;;;73.67;59.67;;;;;;;;6489229;46;12508;-62
2024/01/12 09:37:44;;;;;;;;;76.33;59.33;;;;;;;;6487872;39;8959;-75
2024/01/12 09:43:49;;;;;;;;;80.33;62.33;;;;;;;;6489504;39;8985;-60
2024/01/12 09:49:53;;;;;;;;;78.67;58.00;;;;;;;;6488190;39;9615;-61
2024/01/12 09:55:55;;;;;;;;;71.00;57.67;;;;;;;;6486438;46;8928;-61
2024/01/12 10:02:14;;;;;;;;;77.00;60.00;;;;;;;;6487395;39;8976;-61
2024/01/12 10:08:17;;;;;;;;;76.00;63.00;;;;;;;;6486965;39;9041;-62
2024/01/12 10:14:25;;;;;;;;;78.33;60.67;;;;;;;;6482484;39;9851;-61
2024/01/12 10:20:35;;;;;;;;;80.33;64.00;;;;;;;;6482976;39;9027;-60
2024/01/12 10:26:38;;;;;;;;;86.33;66.00;;;;;;;;6482113;39;9135;-61
2024/01/12 10:32:40;;;;;;;;;81.00;65.33;;;;;;;;6484835;39;8893;-68
2024/01/12 10:38:47;;;;;;;;;82.67;64.67;;;;;;;;6484157;31;8891;-70
2024/01/12 10:44:56;;;;;;;;;87.00;65.00;;;;;;;;6482584;39;8892;-71
2024/01/12 10:51:01;;;;;;;;;80.67;62.67;;;;;;;;6485547;31;8955;-70
2024/01/12 10:57:09;;;;;;;;;85.33;65.67;;;;;;;;6484283;39;9061;-70
2024/01/12 11:03:15;;;;;;;;;87.33;66.67;;;;;;;;6470686;46;9020;-69
2024/01/12 11:09:20;;;;;;;;;78.33;59.33;;;;;;;;6483690;39;8930;-69
2024/01/12 11:15:30;;;;;;;;;70.67;55.67;;;;;;;;6486280;31;8965;-67
2024/01/12 11:21:38;;;;;;;;;79.00;61.00;;;;;;;;6486657;46;8950;-69
2024/01/12 11:27:43;;;;;;;;;74.67;55.33;;;;;;;;6486084;39;9018;-68
2024/01/12 11:34:06;;;;;;;;;53.50;44.50;;;;;;;;6487039;39;8999;-69
2024/01/12 11:41:03;;;;;;;;;69.00;55.00;;;;;;;;6487837;31;8982;-70
2024/01/12 11:47:55;;;;;;;;;66.25;49.00;;;;;;;;6488176;39;9093;-72
2024/01/12 11:54:24;;;;;;;;;54.75;48.50;;;;;;;;6488684;31;9680;-70
2024/01/12 12:00:54;;;;;;;;;60.50;52.75;;;;;;;;6487756;46;9009;-70
2024/01/12 12:07:04;;;;;;;;;70.25;55.25;;;;;;;;6486802;39;8970;-70
2024/01/12 12:13:13;;;;;;;;;66.25;54.75;;;;;;;;6488788;39;8965;-68
2024/01/12 12:20:01;;;;;;;;;75.00;60.33;;;;;;;;6488626;39;9563;-69
2024/01/12 12:26:41;;;;;;;;;78.00;61.00;;;;;;;;6490006;31;8927;-69
2024/01/12 12:33:28;;;;;;;;;72.00;55.67;;;;;;;;6488661;47;8970;-69
2024/01/12 12:40:21;;;;;;;;;60.25;50.50;;;;;;;;6488545;39;9671;-71
2024/01/12 12:46:54;;;;;;;;;57.00;47.50;;;;;;;;6486735;46;8970;-71
2024/01/12 12:53:51;;;;;;;;;57.00;44.75;;;;;;;;6489367;47;8972;-72
2024/01/12 13:00:47;;;;;;;;;54.25;49.00;;;;;;;;6489383;31;8998;-71
2024/01/12 13:08:29;;;;;;;;;66.50;51.75;;;;;;;;6487114;39;9663;-70
2024/01/12 13:15:04;;;;;;;;;65.67;53.33;;;;;;;;6489403;31;9086;-68
2024/01/12 13:21:26;;;;;;;;;67.25;53.25;;;;;;;;6488206;39;8899;-69
2024/01/12 13:29:25;;;;;;;;;65.00;52.33;;;;;;;;6488740;46;8982;-70
2024/01/12 13:36:39;;;;;;;;;60.50;47.25;;;;;;;;6490012;39;8961;-71
2024/01/12 13:50:29;;;;;;;;;64.25;51.75;;;;;;;;6487232;46;8954;-71
2024/01/12 13:57:20;;;;;;;;;67.67;57.00;;;;;;;;6489709;39;8899;-70
2024/01/12 14:04:44;;;;;;;;;65.75;51.00;;;;;;;;6488766;46;8966;-69
2024/01/12 14:11:28;;;;;;;;;64.33;49.67;;;;;;;;6490467;39;8986;-69
2024/01/12 14:18:13;;;;;;;;;68.67;51.67;;;;;;;;6492620;39;8883;-70
2024/01/12 14:24:48;;;;;;;;;69.00;53.00;;;;;;;;6490790;39;8931;-72
2024/01/12 14:31:16;;;;;;;;;68.00;53.33;;;;;;;;6491318;39;9565;-68
2024/01/12 14:37:31;;;;;;;;;62.67;49.67;;;;;;;;6489488;39;8958;-69
2024/01/12 14:43:43;;;;;;;;;64.00;51.67;;;;;;;;6491720;39;8934;-70
2024/01/12 14:50:13;;;;;;;;;66.67;54.33;;;;;;;;6489540;46;8979;-68
2024/01/12 14:56:56;;;;;;;;;67.67;54.00;;;;;;;;6490584;39;8975;-68
2024/01/12 15:03:31;;;;;;;;;49.75;43.00;;;;;;;;6492964;39;8970;-69
2024/01/12 15:09:57;;;;;;;;;40.00;33.00;;;;;;;;6492628;31;8899;-69
2024/01/12 15:16:35;;;;;;;;;35.75;30.75;;;;;;;;6491242;46;8910;-71
2024/01/12 15:22:43;;;;;;;;;37.25;32.50;;;;;;;;6491158;39;8946;-70
2024/01/12 15:28:46;;;;;;;;;25.33;24.67;;;;;;;;6492055;46;8931;-69
2024/01/12 15:34:50;;;;;;;;;40.67;38.67;;;;;;;;6491768;39;8926;-71
2024/01/12 15:40:53;;;;;;;;;37.67;31.00;;;;;;;;6491474;46;8929;-70
2024/01/12 15:46:59;;;;;;;;;30.00;28.50;;;;;;;;6490919;39;8942;-69
2024/01/12 15:53:05;;;;;;;;;29.25;25.75;;;;;;;;6491686;39;9601;-70
2024/01/12 15:59:08;;;;;;;;;34.25;31.25;;;;;;;;6481325;39;10958;-68
2024/01/12 16:05:15;;;;;;;;;35.50;31.25;;;;;;;;6485256;39;8951;-68
2024/01/12 16:11:21;;;;;;;;;41.50;35.00;;;;;;;;6488890;39;8994;-69
2024/01/12 16:17:24;;;;;;;;;31.00;29.00;;;;;;;;6491094;47;9117;-69
2024/01/12 16:23:27;;;;;;;;;28.50;24.00;;;;;;;;6491310;46;8864;-70
2024/01/12 16:29:30;;;;;;;;;23.50;18.00;;;;;;;;6491744;39;8966;-67
2024/01/12 16:35:39;;;;;;;;;27.25;22.00;;;;;;;;6489748;39;8953;-68
2024/01/12 16:41:42;;;;;;;;;23.25;21.50;;;;;;;;6490507;47;9017;-69
2024/01/12 16:47:47;;;;;;;;;14.00;13.25;;;;;;;;6491140;39;8967;-69
2024/01/12 16:53:51;;;;;;;;;14.00;11.00;;;;;;;;6491492;31;8934;-67
2024/01/12 16:59:56;;;;;;;;;14.00;14.00;;;;;;;;6490988;39;8844;-67
2024/01/12 17:06:01;;;;;;;;;13.50;11.25;;;;;;;;6493551;36;8903;-68
2024/01/12 17:12:04;;;;;;;;;14.50;14.00;;;;;;;;6491510;39;8955;-69
2024/01/12 17:18:11;;;;;;;;;14.50;14.50;;;;;;;;6489921;39;9466;-67
2024/01/12 17:24:28;;;;;;;;;16.00;16.00;;;;;;;;6490682;39;8957;-66
2024/01/12 17:30:30;;;;;;;;;13.75;13.75;;;;;;;;6491211;31;8910;-69
2024/01/12 17:36:51;;;;;;;;;15.00;12.67;;;;;;;;6490886;46;8901;-68
2024/01/12 17:42:54;;;;;;;;;14.00;14.00;;;;;;;;6491339;39;9518;-68
2024/01/12 17:48:57;;;;;;;;;13.50;13.25;;;;;;;;6490786;39;8970;-67
2024/01/12 17:55:00;;;;;;;;;19.33;15.00;;;;;;;;6490975;39;8937;-67
2024/01/12 18:01:03;;;;;;;;;15.33;14.00;;;;;;;;6490258;39;8922;-66
2024/01/12 18:07:05;;;;;;;;;12.33;11.00;;;;;;;;6490344;39;8871;-69
2024/01/12 18:13:10;;;;;;;;;19.33;16.33;;;;;;;;6488784;46;8963;-69
2024/01/12 18:19:18;;;;;;;;;31.00;26.00;;;;;;;;6490654;31;8843;-68
2024/01/12 18:25:23;;;;;;;;;17.33;15.33;;;;;;;;6491495;39;9050;-68
2024/01/12 18:31:26;;;;;;;;;25.33;18.00;;;;;;;;6490967;39;8989;-67
2024/01/12 18:37:29;;;;;;;;;25.67;18.33;;;;;;;;6489814;46;9059;-67
2024/01/12 18:43:34;;;;;;;;;20.33;20.33;;;;;;;;6489903;39;8882;-66
2024/01/12 18:49:36;;;;;;;;;20.67;19.67;;;;;;;;6490852;39;8969;-68
2024/01/12 18:55:42;;;;;;;;;31.00;27.33;;;;;;;;6491108;39;8902;-68
2024/01/12 19:01:52;;;;;;;;;19.33;19.33;;;;;;;;6518006;31;8896;-69
2024/01/12 19:07:58;;;;;;;;;17.00;17.00;;;;;;;;6490664;31;8956;-69
2024/01/12 19:14:03;;;;;;;;;18.25;14.00;;;;;;;;6489592;39;9476;-68
2024/01/12 19:20:09;;;;;;;;;18.00;15.33;;;;;;;;6489826;39;9499;-70
2024/01/12 19:26:13;;;;;;;;;14.00;13.00;;;;;;;;6490951;31;9023;-68
2024/01/12 19:32:20;;;;;;;;;13.67;13.00;;;;;;;;6490732;39;8913;-69
2024/01/12 19:38:24;;;;;;;;;23.00;17.00;;;;;;;;6491195;39;8935;-68
2024/01/12 19:44:28;;;;;;;;;17.00;17.00;;;;;;;;6489687;39;8900;-69
2024/01/12 19:50:31;;;;;;;;;13.67;13.67;;;;;;;;6490340;46;8924;-67
2024/01/12 19:56:34;;;;;;;;;12.00;11.67;;;;;;;;6489547;31;8876;-68
2024/01/12 20:02:41;;;;;;;;;14.75;14.50;;;;;;;;6489671;39;8963;-68
2024/01/12 20:08:44;;;;;;;;;12.50;10.75;;;;;;;;6489562;39;9547;-68
2024/01/12 20:14:49;;;;;;;;;10.00;9.00;;;;;;;;6490304;39;8864;-68
2024/01/12 20:20:52;;;;;;;;;19.33;17.67;;;;;;;;6490185;46;8918;-69
2024/01/12 20:26:55;;;;;;;;;13.00;13.00;;;;;;;;6492235;39;8872;-69
2024/01/12 20:33:00;;;;;;;;;16.00;13.67;;;;;;;;6491819;46;8932;-69
2024/01/12 20:39:07;;;;;;;;;11.00;10.33;;;;;;;;6492259;31;9025;-69
2024/01/12 20:45:12;;;;;;;;;14.67;13.33;;;;;;;;6491548;31;8896;-69
2024/01/12 20:51:15;;;;;;;;;18.33;13.33;;;;;;;;6492002;31;9052;-69
2024/01/12 20:57:20;;;;;;;;;10.67;10.33;;;;;;;;6491176;39;9498;-69
2024/01/12 21:03:25;;;;;;;;;13.33;10.00;;;;;;;;6491711;39;8979;-68
2024/01/12 21:09:32;;;;;;;;;16.00;14.00;;;;;;;;6490838;46;8919;-68
2024/01/12 21:15:36;;;;;;;;;11.67;11.67;;;;;;;;6491468;39;8948;-69
2024/01/12 21:21:39;;;;;;;;;12.00;12.00;;;;;;;;6491148;39;8880;-68
2024/01/12 21:27:43;;;;;;;;;10.33;10.33;;;;;;;;6491075;39;9972;-68
2024/01/12 21:33:50;;;;;;;;;14.00;14.00;;;;;;;;6491596;31;8844;-69
2024/01/12 21:39:54;;;;;;;;;11.00;9.33;;;;;;;;6491254;46;8889;-68
2024/01/12 21:45:58;;;;;;;;;16.33;13.67;;;;;;;;6490864;46;8920;-69
2024/01/12 21:52:00;;;;;;;;;11.00;10.00;;;;;;;;6492244;39;9718;-69
2024/01/12 21:58:08;;;;;;;;;11.00;11.00;;;;;;;;6491015;39;8915;-68
2024/01/12 22:04:12;;;;;;;;;17.33;10.67;;;;;;;;6490140;39;8912;-69
2024/01/12 22:10:15;;;;;;;;;18.00;15.33;;;;;;;;6490134;46;8913;-67
2024/01/12 22:16:20;;;;;;;;;9.33;8.00;;;;;;;;6491355;39;8981;-68
2024/01/12 22:22:23;;;;;;;;;13.67;13.67;;;;;;;;6490001;39;8907;-69
2024/01/12 22:28:29;;;;;;;;;13.00;12.33;;;;;;;;6490865;39;9023;-68
2024/01/12 22:34:32;;;;;;;;;13.67;8.00;;;;;;;;6490517;39;8877;-67
2024/01/12 22:40:38;;;;;;;;;10.00;10.00;;;;;;;;6492971;31;8919;-69
2024/01/12 22:46:42;;;;;;;;;13.00;13.00;;;;;;;;6490401;46;8924;-68
2024/01/12 22:52:44;;;;;;;;;11.00;11.00;;;;;;;;6490859;46;8995;-68
2024/01/12 22:58:46;;;;;;;;;10.00;10.00;;;;;;;;6490618;39;9079;-67
2024/01/12 23:04:50;;;;;;;;;10.67;10.00;;;;;;;;6490112;46;8904;-67
2024/01/12 23:11:10;;;;;;;;;11.33;11.33;;;;;;;;6489785;46;8869;-69
2024/01/12 23:17:16;;;;;;;;;13.00;11.33;;;;;;;;6489719;46;8901;-68
2024/01/12 23:23:23;;;;;;;;;11.00;8.00;;;;;;;;6490150;46;9003;-67
2024/01/12 23:29:29;;;;;;;;;10.33;9.33;;;;;;;;6490926;39;8900;-67
2024/01/12 23:35:42;;;;;;;;;13.00;10.00;;;;;;;;6490346;31;9039;-68
2024/01/12 23:41:47;;;;;;;;;13.67;11.00;;;;;;;;6490603;46;8904;-68
2024/01/12 23:47:51;;;;;;;;;11.00;11.00;;;;;;;;6490022;39;8956;-66
2024/01/12 23:53:54;;;;;;;;;9.67;8.67;;;;;;;;6490601;31;9071;-66
2024/01/12 23:59:58;;;;;;;;;8.33;8.33;;;;;;;;6489036;46;8920;-68
